Terminal Aerodrome Forecast
Issued by NWS Cheyenne, WY

Home | Current Version | Previous Version | Text Only | Print | Product List | Glossary On
Versions: 1 2 3 4 5 6 7 8 9 10 11 12 13 14 15 16 17 18 19 20 21 22 23 24 25 26 27 28 29 30
000
FTUS45 KCYS 230500
TAFCYS
TAF
KCYS 230520Z 2306/2406 28010KT P6SM SCT100
     FM231500 30013G19KT P6SM SCT100
     FM231900 29015G24KT P6SM BKN080
     FM232300 31011G18KT P6SM SCT080
     FM240100 31007KT P6SM SKC=

USA.gov is the U.S. government's official web portal to all federal, state and local government web resources and services.